createdAt,value
2022-08-05T00:08:32.881Z,59.86
2022-08-05T00:18:38.397Z,60.24
2022-08-05T00:28:45.925Z,60.67
2022-08-05T00:38:53.564Z,61.21
2022-08-05T00:49:01.048Z,61.66
2022-08-05T00:59:08.889Z,62.21
2022-08-05T01:09:19.848Z,62.55
2022-08-05T01:19:46.215Z,62.89
2022-08-05T01:29:56.096Z,63.38
2022-08-05T01:40:05.188Z,63.77
2022-08-05T01:50:17.368Z,64.08
2022-08-05T02:00:30.389Z,64.40
2022-08-05T02:10:39.483Z,64.82
2022-08-05T02:20:44.997Z,65.26
2022-08-05T02:30:54.670Z,65.67
2022-08-05T02:41:14.639Z,65.92
2022-08-05T02:51:28.516Z,65.93
2022-08-05T03:01:58.380Z,65.95
2022-08-05T03:12:05.456Z,66.36
2022-08-05T03:22:16.773Z,66.68
2022-08-05T03:32:30.947Z,66.97
2022-08-05T03:42:41.526Z,67.32
2022-08-05T03:55:50.981Z,67.57
2022-08-05T04:03:28.947Z,67.56
2022-08-05T04:13:50.233Z,67.06
2022-08-05T04:24:06.723Z,65.25
2022-08-05T04:34:31.383Z,62.83
2022-08-05T04:44:40.430Z,61.10
2022-08-05T04:54:49.416Z,59.45
2022-08-05T05:05:01.908Z,57.69
2022-08-05T05:15:11.281Z,56.35
2022-08-05T05:25:18.952Z,54.87
2022-08-05T05:35:26.331Z,53.72
2022-08-05T05:45:33.630Z,52.46
2022-08-05T05:55:51.092Z,51.93
2022-08-05T06:06:06.226Z,50.70
2022-08-05T06:16:29.542Z,50.13
2022-08-05T06:26:39.086Z,47.88
2022-08-05T06:36:57.187Z,47.15
2022-08-05T06:47:05.414Z,46.30
2022-08-05T06:58:03.933Z,46.21
2022-08-05T07:07:49.062Z,46.12
2022-08-05T07:18:07.291Z,45.51
2022-08-05T07:28:17.425Z,45.41
2022-08-05T07:38:32.284Z,45.64
2022-08-05T07:49:04.225Z,45.52
2022-08-05T07:59:11.001Z,45.57
2022-08-05T08:09:19.826Z,45.49
2022-08-05T08:20:21.204Z,45.02
2022-08-05T08:30:05.171Z,44.46
2022-08-05T08:40:22.491Z,44.14
2022-08-05T08:51:21.941Z,43.47
2022-08-05T09:00:57.874Z,43.65
2022-08-05T09:11:06.105Z,43.42
2022-08-05T09:21:20.785Z,44.01
2022-08-05T09:32:42.018Z,43.19
2022-08-05T09:42:24.557Z,43.08
2022-08-05T09:52:44.987Z,42.18
2022-08-05T10:02:53.832Z,41.80
2022-08-05T10:13:02.820Z,41.78
2022-08-05T10:23:34.299Z,41.47
2022-08-05T10:33:52.246Z,41.02
2022-08-05T10:44:02.872Z,40.37
2022-08-05T10:54:28.258Z,40.21
2022-08-05T11:04:46.403Z,39.70
2022-08-05T11:15:19.363Z,39.73
2022-08-05T11:26:04.616Z,38.62
2022-08-05T11:36:07.913Z,37.76
2022-08-05T11:46:32.381Z,37.51
2022-08-05T11:56:44.977Z,37.13
2022-08-05T12:07:00.885Z,37.36
2022-08-05T12:17:57.802Z,36.53
2022-08-05T12:27:53.329Z,36.53
2022-08-05T12:38:02.266Z,35.50
2022-08-05T12:48:27.066Z,36.11
2022-08-05T12:58:53.850Z,36.63
2022-08-05T13:09:08.552Z,36.09
2022-08-05T13:19:16.295Z,36.03
2022-08-05T13:29:37.669Z,35.88
2022-08-05T13:40:16.421Z,35.35
2022-08-05T13:50:16.513Z,35.50
2022-08-05T14:00:26.861Z,35.52
2022-08-05T14:10:37.425Z,35.32
2022-08-05T14:20:47.225Z,34.98
2022-08-05T14:30:55.785Z,35.43
2022-08-05T14:41:06.466Z,35.04
2022-08-05T14:51:16.047Z,35.39
2022-08-05T15:01:48.114Z,35.08
2022-08-05T15:11:52.425Z,34.34
2022-08-05T15:22:01.506Z,34.22
2022-08-05T15:32:08.453Z,34.24
2022-08-05T15:42:54.567Z,34.35
2022-08-05T15:52:53.518Z,34.26
2022-08-05T16:03:02.289Z,34.56
2022-08-05T16:13:08.527Z,34.56
2022-08-05T16:23:15.704Z,34.47
2022-08-05T16:33:22.047Z,34.53
2022-08-05T16:43:30.491Z,34.79
2022-08-05T16:54:04.737Z,35.72
2022-08-05T17:04:06.442Z,36.79
2022-08-05T17:14:13.651Z,37.43
2022-08-05T17:24:45.408Z,38.26
2022-08-05T17:34:53.791Z,39.15
2022-08-05T17:45:18.106Z,40.25
2022-08-05T17:55:37.122Z,41.14
2022-08-05T18:05:48.936Z,42.12
2022-08-05T18:16:00.934Z,43.22
2022-08-05T18:26:09.768Z,44.31
2022-08-05T18:36:19.072Z,45.07
2022-08-05T18:46:28.978Z,45.90
2022-08-05T18:56:36.942Z,46.51
2022-08-05T19:06:45.716Z,47.17
2022-08-05T19:16:53.493Z,48.11
2022-08-05T19:27:00.671Z,48.74
2022-08-05T19:37:11.922Z,49.02
2022-08-05T19:47:19.136Z,49.20
2022-08-05T19:57:47.462Z,49.71
2022-08-05T20:07:58.914Z,50.43
2022-08-05T20:18:10.601Z,50.60
2022-08-05T20:28:35.346Z,51.38
2022-08-05T20:38:54.007Z,51.65
2022-08-05T20:49:06.230Z,52.04
2022-08-05T20:59:26.518Z,52.67
2022-08-05T21:09:34.901Z,52.97
2022-08-05T21:19:46.864Z,53.25
2022-08-05T21:29:55.827Z,53.47
2022-08-05T21:40:05.724Z,53.89
2022-08-05T21:50:12.721Z,54.37
2022-08-05T22:00:20.201Z,55.04
2022-08-05T22:10:28.390Z,55.21
2022-08-05T22:20:34.857Z,55.78
2022-08-05T22:30:56.719Z,56.00
2022-08-05T22:41:09.865Z,56.40
2022-08-05T22:51:22.634Z,56.75
2022-08-05T23:02:03.964Z,56.99
2022-08-05T23:11:56.499Z,57.25
2022-08-05T23:22:03.878Z,57.67
2022-08-05T23:32:12.441Z,57.97
2022-08-05T23:42:29.597Z,58.33
2022-08-05T23:52:49.796Z,58.83
